createdAt,value
2023-01-08T00:00:52.893Z,9.63
2023-01-08T00:03:19.921Z,9.61
2023-01-08T00:05:46.752Z,9.59
2023-01-08T00:08:13.632Z,9.61
2023-01-08T00:10:40.425Z,9.61
2023-01-08T00:13:07.536Z,9.60
2023-01-08T00:15:34.786Z,9.61
2023-01-08T00:18:01.684Z,9.62
2023-01-08T00:20:29.009Z,9.64
2023-01-08T00:22:55.837Z,9.63
2023-01-08T00:25:22.610Z,9.62
2023-01-08T00:27:49.671Z,9.62
2023-01-08T00:30:16.480Z,9.62
2023-01-08T00:32:43.410Z,9.60
2023-01-08T00:35:10.376Z,9.62
2023-01-08T00:37:37.144Z,9.62
2023-01-08T00:40:04.104Z,9.61
2023-01-08T00:42:30.867Z,9.61
2023-01-08T00:44:57.710Z,9.63
2023-01-08T00:47:24.546Z,9.62
2023-01-08T00:49:51.317Z,9.63
2023-01-08T00:52:18.141Z,9.63
2023-01-08T00:54:45.167Z,9.63
2023-01-08T00:57:12.013Z,9.62
2023-01-08T00:59:38.837Z,9.63
2023-01-08T01:02:05.834Z,9.64
2023-01-08T01:04:32.793Z,9.63
2023-01-08T01:06:59.606Z,9.65
2023-01-08T01:09:26.417Z,9.66
2023-01-08T01:11:53.241Z,9.67
2023-01-08T01:14:20.063Z,9.66
2023-01-08T01:16:48.791Z,9.67
2023-01-08T01:19:16.596Z,9.66
2023-01-08T01:21:43.645Z,9.68
2023-01-08T01:24:11.770Z,9.69
2023-01-08T01:26:38.753Z,9.70
2023-01-08T01:29:06.525Z,9.68
2023-01-08T01:31:33.686Z,9.67
2023-01-08T01:34:00.573Z,9.67
2023-01-08T01:36:27.914Z,9.66
2023-01-08T01:38:55.331Z,9.65
2023-01-08T01:41:24.938Z,9.64
2023-01-08T01:43:52.099Z,9.64
2023-01-08T01:46:39.142Z,9.64
2023-01-08T01:49:11.343Z,9.64
2023-01-08T01:51:41.717Z,9.64
2023-01-08T01:54:10.904Z,9.64
2023-01-08T01:56:37.701Z,9.64
2023-01-08T01:59:04.933Z,9.62
2023-01-08T02:01:32.549Z,9.61
2023-01-08T02:03:59.649Z,9.59
2023-01-08T02:06:42.609Z,9.58
2023-01-08T02:09:18.429Z,9.56
2023-01-08T02:12:13.458Z,9.54
2023-01-08T02:14:46.170Z,9.54
2023-01-08T02:17:16.456Z,9.53
2023-01-08T02:19:47.656Z,9.52
2023-01-08T02:22:23.433Z,9.53
2023-01-08T02:25:01.839Z,9.52
2023-01-08T02:27:31.028Z,9.53
2023-01-08T02:29:58.470Z,9.53
2023-01-08T02:32:33.012Z,9.54
2023-01-08T02:35:00.352Z,9.52
2023-01-08T02:37:27.084Z,9.49
2023-01-08T02:40:06.944Z,9.46
2023-01-08T02:42:33.707Z,9.44
2023-01-08T02:45:03.495Z,9.43
2023-01-08T02:47:33.360Z,9.42
2023-01-08T02:50:18.799Z,9.42
2023-01-08T02:53:04.407Z,9.41
2023-01-08T02:55:33.567Z,9.40
2023-01-08T02:58:00.738Z,9.39
2023-01-08T03:00:27.942Z,9.38
2023-01-08T03:03:03.870Z,9.40
2023-01-08T03:05:30.696Z,9.39
2023-01-08T03:07:57.769Z,9.39
2023-01-08T03:10:26.506Z,9.38
2023-01-08T03:12:58.694Z,9.34
2023-01-08T03:15:31.977Z,9.30
2023-01-08T03:18:02.070Z,9.25
2023-01-08T03:20:30.187Z,9.20
2023-01-08T03:22:58.731Z,8.98
2023-01-08T03:25:26.996Z,9.13
2023-01-08T03:28:01.332Z,9.09
2023-01-08T03:30:29.654Z,9.06
2023-01-08T03:32:59.089Z,9.05
2023-01-08T03:35:27.014Z,9.04
2023-01-08T03:38:14.198Z,9.01
2023-01-08T03:40:44.205Z,8.98
2023-01-08T03:43:11.075Z,8.96
2023-01-08T03:45:38.830Z,8.95
2023-01-08T03:48:06.083Z,8.92
2023-01-08T03:50:33.429Z,8.86
2023-01-08T03:53:01.009Z,8.79
2023-01-08T03:55:27.916Z,8.71
2023-01-08T03:57:54.666Z,8.66
2023-01-08T04:00:21.438Z,8.60
2023-01-08T04:02:48.701Z,8.51
2023-01-08T04:05:15.438Z,8.42
2023-01-08T04:07:42.287Z,8.36
2023-01-08T04:10:09.009Z,8.32
2023-01-08T04:12:35.794Z,8.29
2023-01-08T04:15:02.633Z,8.25
2023-01-08T04:17:29.526Z,8.23
2023-01-08T04:19:56.248Z,8.23
2023-01-08T04:22:23.133Z,8.29
2023-01-08T04:24:49.913Z,8.36
2023-01-08T04:27:16.989Z,8.44
2023-01-08T04:29:43.789Z,8.52
2023-01-08T04:32:10.655Z,8.60
2023-01-08T04:34:37.354Z,8.66
2023-01-08T04:37:04.404Z,8.73
2023-01-08T04:39:31.376Z,8.80
2023-01-08T04:41:58.333Z,8.87
2023-01-08T04:44:25.301Z,8.92
2023-01-08T04:46:52.202Z,8.98
2023-01-08T04:49:18.903Z,9.02
2023-01-08T04:51:45.682Z,9.04
2023-01-08T04:54:12.391Z,9.09
2023-01-08T04:56:39.226Z,9.13
2023-01-08T04:59:05.985Z,9.16
2023-01-08T05:01:32.820Z,9.17
2023-01-08T05:04:00.446Z,9.18
2023-01-08T05:06:28.434Z,9.21
2023-01-08T05:08:55.245Z,9.23
2023-01-08T05:11:22.177Z,9.26
2023-01-08T05:13:49.715Z,9.28
2023-01-08T05:16:16.818Z,9.32
2023-01-08T05:18:44.396Z,9.34
2023-01-08T05:21:11.419Z,9.35
2023-01-08T05:23:38.114Z,9.38
2023-01-08T05:26:06.545Z,9.39
2023-01-08T05:28:33.333Z,9.39
2023-01-08T05:31:00.303Z,9.41
2023-01-08T05:33:27.336Z,9.42
2023-01-08T05:35:54.436Z,9.43
2023-01-08T05:38:21.210Z,9.45
2023-01-08T05:40:48.095Z,9.48
2023-01-08T05:43:14.955Z,9.51
2023-01-08T05:45:41.808Z,9.50
2023-01-08T05:48:08.812Z,9.53
2023-01-08T05:50:36.030Z,9.55
2023-01-08T05:53:06.080Z,9.56
2023-01-08T05:55:32.945Z,9.57
2023-01-08T05:58:03.308Z,9.58
2023-01-08T06:00:30.799Z,9.56
2023-01-08T06:02:57.695Z,9.56
2023-01-08T06:05:24.588Z,9.58
2023-01-08T06:07:51.300Z,9.58
2023-01-08T06:10:18.139Z,9.57
2023-01-08T06:12:44.913Z,9.58
2023-01-08T06:15:12.874Z,9.57
2023-01-08T06:17:39.706Z,9.56
2023-01-08T06:20:07.031Z,9.58
2023-01-08T06:22:34.133Z,9.58
2023-01-08T06:25:01.149Z,9.56
2023-01-08T06:27:27.980Z,9.56
2023-01-08T06:29:55.018Z,9.58
2023-01-08T06:32:21.790Z,9.57
2023-01-08T06:34:48.651Z,9.60
2023-01-08T06:37:15.416Z,9.59
2023-01-08T06:39:42.759Z,9.60
2023-01-08T06:42:09.547Z,9.59
2023-01-08T06:44:36.289Z,9.61
2023-01-08T06:47:02.995Z,9.60
2023-01-08T06:49:29.844Z,9.61
2023-01-08T06:51:57.347Z,9.63
2023-01-08T06:54:24.145Z,9.64
2023-01-08T06:56:54.058Z,9.66
2023-01-08T06:59:21.842Z,9.68
2023-01-08T07:01:49.103Z,9.70
2023-01-08T07:04:16.218Z,9.73
2023-01-08T07:06:42.930Z,9.75
2023-01-08T07:09:12.567Z,9.77
2023-01-08T07:11:39.693Z,9.78
2023-01-08T07:14:06.580Z,9.80
2023-01-08T07:16:33.353Z,9.80
2023-01-08T07:19:00.240Z,9.81
2023-01-08T07:21:27.032Z,9.82
2023-01-08T07:23:53.784Z,9.85
2023-01-08T07:26:20.552Z,9.86
2023-01-08T07:28:47.332Z,9.88
2023-01-08T07:31:14.173Z,9.89
2023-01-08T07:33:41.119Z,9.91
2023-01-08T07:36:08.180Z,9.92
2023-01-08T07:38:34.984Z,9.93
2023-01-08T07:41:01.695Z,9.95
2023-01-08T07:43:30.165Z,9.98
2023-01-08T07:45:57.822Z,10.00
2023-01-08T07:48:24.666Z,10.02
2023-01-08T07:50:51.410Z,10.01
2023-01-08T07:53:18.338Z,10.04
2023-01-08T07:55:45.107Z,10.05
2023-01-08T07:58:13.147Z,10.06
2023-01-08T08:00:39.989Z,10.08
2023-01-08T08:03:07.867Z,10.11
2023-01-08T08:05:35.370Z,10.10
2023-01-08T08:08:02.195Z,10.08
2023-01-08T08:10:28.983Z,10.08
2023-01-08T08:12:55.806Z,10.12
2023-01-08T08:15:22.594Z,10.12
2023-01-08T08:17:49.835Z,10.12
2023-01-08T08:20:16.801Z,10.13
2023-01-08T08:22:43.686Z,10.11
2023-01-08T08:25:10.708Z,10.11
2023-01-08T08:27:37.565Z,10.15
2023-01-08T08:30:05.775Z,10.17
2023-01-08T08:32:32.734Z,10.17
2023-01-08T08:35:00.619Z,10.18
2023-01-08T08:37:27.492Z,10.18
2023-01-08T08:39:54.316Z,10.21
2023-01-08T08:42:21.186Z,10.23
2023-01-08T08:44:47.993Z,10.26
2023-01-08T08:47:14.914Z,10.29
2023-01-08T08:49:41.706Z,10.30
2023-01-08T08:52:08.468Z,10.34
2023-01-08T08:54:35.354Z,10.31
2023-01-08T08:57:02.186Z,10.26
2023-01-08T08:59:28.939Z,10.21
2023-01-08T09:01:55.866Z,10.18
2023-01-08T09:04:22.738Z,10.18
2023-01-08T09:06:49.816Z,10.16
2023-01-08T09:09:16.931Z,10.17
2023-01-08T09:11:44.059Z,10.16
2023-01-08T09:14:10.757Z,10.16
2023-01-08T09:16:37.626Z,10.19
2023-01-08T09:19:05.737Z,10.24
2023-01-08T09:21:32.608Z,10.33
2023-01-08T09:23:59.347Z,10.41
2023-01-08T09:26:28.806Z,10.48
2023-01-08T09:28:55.537Z,10.53
2023-01-08T09:31:22.625Z,10.53
2023-01-08T09:33:49.498Z,10.51
2023-01-08T09:36:16.686Z,10.46
2023-01-08T09:38:45.103Z,10.47
2023-01-08T09:41:16.863Z,10.48
2023-01-08T09:43:45.258Z,10.48
2023-01-08T09:46:12.540Z,10.54
2023-01-08T09:48:40.622Z,10.67
2023-01-08T09:51:18.078Z,10.83
2023-01-08T09:53:45.553Z,11.03
2023-01-08T09:56:19.314Z,11.28
2023-01-08T09:58:46.252Z,11.60
2023-01-08T10:01:14.750Z,11.82
2023-01-08T10:03:49.953Z,11.79
2023-01-08T10:06:17.195Z,11.78
2023-01-08T10:11:16.575Z,13.03
2023-01-08T10:13:46.366Z,13.27
2023-01-08T10:16:18.690Z,13.43
2023-01-08T10:18:45.433Z,13.57
2023-01-08T10:21:14.390Z,13.58
2023-01-08T10:23:51.423Z,13.38
2023-01-08T10:26:30.544Z,13.28
2023-01-08T10:29:07.523Z,13.12
2023-01-08T10:31:34.879Z,12.92
2023-01-08T10:34:09.994Z,12.86
2023-01-08T10:36:41.006Z,12.82
2023-01-08T10:39:18.999Z,12.73
2023-01-08T10:41:46.046Z,12.75
2023-01-08T10:44:17.595Z,12.79
2023-01-08T10:46:50.533Z,12.85
2023-01-08T10:49:20.967Z,12.82
2023-01-08T10:51:52.258Z,12.79
2023-01-08T10:54:34.130Z,12.84
2023-01-08T10:57:02.551Z,12.94
2023-01-08T10:59:29.557Z,13.00
2023-01-08T11:01:57.804Z,13.00
2023-01-08T11:04:33.136Z,12.98
2023-01-08T11:07:01.311Z,12.87
2023-01-08T11:09:30.459Z,12.82
2023-01-08T11:11:58.231Z,12.79
2023-01-08T11:14:33.687Z,12.66
2023-01-08T11:17:02.826Z,12.57
2023-01-08T11:19:31.749Z,12.51
2023-01-08T11:21:58.496Z,12.43
2023-01-08T11:24:33.015Z,12.39
2023-01-08T11:27:26.057Z,12.41
2023-01-08T11:29:55.927Z,12.52
2023-01-08T11:32:39.604Z,12.70
2023-01-08T11:35:12.405Z,12.82
2023-01-08T11:37:40.506Z,12.92
2023-01-08T11:40:17.674Z,12.94
2023-01-08T11:42:56.807Z,12.92
2023-01-08T11:45:29.485Z,12.93
2023-01-08T11:48:15.009Z,12.94
2023-01-08T11:50:54.469Z,13.01
2023-01-08T11:53:43.796Z,13.02
2023-01-08T11:56:19.007Z,12.86
2023-01-08T11:59:02.278Z,12.87
2023-01-08T12:01:35.646Z,12.98
2023-01-08T12:04:17.443Z,13.06
2023-01-08T12:06:51.535Z,13.03
2023-01-08T12:09:27.365Z,13.02
2023-01-08T12:12:02.503Z,12.96
2023-01-08T12:14:40.345Z,12.99
2023-01-08T12:17:13.517Z,13.01
2023-01-08T12:19:49.208Z,13.02
2023-01-08T12:22:33.248Z,13.06
2023-01-08T12:25:00.028Z,13.04
2023-01-08T12:27:48.550Z,13.07
2023-01-08T12:30:26.237Z,13.03
2023-01-08T12:32:58.707Z,13.01
2023-01-08T12:35:28.142Z,12.97
2023-01-08T12:38:01.755Z,12.94
2023-01-08T12:40:42.435Z,12.93
2023-01-08T12:43:13.313Z,12.89
2023-01-08T12:45:46.972Z,12.84
2023-01-08T12:48:16.192Z,12.78
2023-01-08T12:50:57.709Z,12.73
2023-01-08T12:53:47.324Z,12.71
2023-01-08T12:56:14.160Z,12.71
2023-01-08T12:58:52.668Z,12.70
2023-01-08T13:01:31.538Z,12.69
2023-01-08T13:03:59.314Z,12.70
2023-01-08T13:06:26.521Z,12.70
2023-01-08T13:08:55.590Z,12.67
2023-01-08T13:11:29.461Z,12.63
2023-01-08T13:14:08.117Z,12.56
2023-01-08T13:16:45.956Z,12.50
2023-01-08T13:19:24.755Z,12.46
2023-01-08T13:21:55.722Z,12.40
2023-01-08T13:24:29.776Z,12.39
2023-01-08T13:26:59.709Z,12.40
2023-01-08T13:29:41.438Z,12.43
2023-01-08T13:32:26.650Z,12.44
2023-01-08T13:35:12.969Z,12.46
2023-01-08T13:37:39.696Z,12.43
2023-01-08T13:40:26.505Z,12.40
2023-01-08T13:42:53.489Z,12.33
2023-01-08T13:45:20.492Z,12.31
2023-01-08T13:47:47.528Z,12.29
2023-01-08T13:50:21.109Z,12.28
2023-01-08T13:52:57.547Z,12.24
2023-01-08T13:55:35.831Z,12.26
2023-01-08T13:58:09.471Z,12.27
2023-01-08T14:00:45.427Z,12.25
2023-01-08T14:03:22.242Z,12.26
2023-01-08T14:05:49.137Z,12.28
2023-01-08T14:08:25.613Z,12.30
2023-01-08T14:10:55.212Z,12.33
2023-01-08T14:13:26.907Z,12.36
2023-01-08T14:15:55.505Z,12.40
2023-01-08T14:18:22.400Z,12.45
2023-01-08T14:20:51.411Z,12.46
2023-01-08T14:23:23.698Z,12.45
2023-01-08T14:25:50.877Z,12.46
2023-01-08T14:28:22.536Z,12.44
2023-01-08T14:30:50.295Z,12.45
2023-01-08T14:33:17.717Z,12.44
2023-01-08T14:35:44.730Z,12.44
2023-01-08T14:38:13.147Z,12.46
2023-01-08T14:40:42.614Z,12.45
2023-01-08T14:43:11.383Z,12.43
2023-01-08T14:45:40.107Z,12.43
2023-01-08T14:48:17.763Z,12.41
2023-01-08T14:50:45.543Z,12.37
2023-01-08T14:53:21.012Z,12.33
2023-01-08T14:55:49.064Z,12.30
2023-01-08T14:58:17.690Z,12.29
2023-01-08T15:00:49.350Z,12.29
2023-01-08T15:03:29.879Z,12.26
2023-01-08T15:05:56.940Z,12.26
2023-01-08T15:08:23.602Z,12.24
2023-01-08T15:11:03.912Z,12.25
2023-01-08T15:13:32.704Z,12.23
2023-01-08T15:16:01.933Z,12.22
2023-01-08T15:18:28.941Z,12.19
2023-01-08T15:20:55.704Z,12.17
2023-01-08T15:23:25.215Z,12.15
2023-01-08T15:25:52.827Z,12.15
2023-01-08T15:28:21.921Z,12.14
2023-01-08T15:30:49.364Z,12.14
2023-01-08T15:33:16.950Z,12.13
2023-01-08T15:35:43.829Z,12.13
2023-01-08T15:38:10.586Z,12.12
2023-01-08T15:40:37.371Z,12.12
2023-01-08T15:43:10.081Z,12.13
2023-01-08T15:45:38.003Z,12.12
2023-01-08T15:48:05.350Z,12.10
2023-01-08T15:50:36.662Z,12.07
2023-01-08T15:53:10.405Z,12.08
2023-01-08T15:55:37.771Z,12.07
2023-01-08T15:58:04.500Z,12.07
2023-01-08T16:00:32.893Z,12.07
2023-01-08T16:03:00.132Z,12.06
2023-01-08T16:05:29.292Z,12.05
2023-01-08T16:07:57.041Z,12.04
2023-01-08T16:10:25.685Z,12.04
2023-01-08T16:12:53.854Z,12.04
2023-01-08T16:15:22.952Z,12.04
2023-01-08T16:17:51.231Z,12.03
2023-01-08T16:20:18.913Z,12.04
2023-01-08T16:22:46.810Z,12.05
2023-01-08T16:25:14.200Z,12.05
2023-01-08T16:27:43.199Z,12.05
2023-01-08T16:30:15.031Z,12.02
2023-01-08T16:32:42.085Z,12.02
2023-01-08T16:35:09.262Z,11.99
2023-01-08T16:37:38.110Z,11.96
2023-01-08T16:40:06.267Z,11.96
2023-01-08T16:42:34.230Z,11.94
2023-01-08T16:45:01.950Z,11.93
2023-01-08T16:47:29.033Z,11.93
2023-01-08T16:49:55.844Z,11.92
2023-01-08T16:52:23.938Z,11.90
2023-01-08T16:54:50.963Z,11.88
2023-01-08T16:57:19.284Z,11.85
2023-01-08T16:59:46.855Z,11.83
2023-01-08T17:02:15.038Z,11.80
2023-01-08T17:04:41.877Z,11.80
2023-01-08T17:07:12.915Z,11.79
2023-01-08T17:09:41.055Z,11.79
2023-01-08T17:12:07.833Z,11.77
2023-01-08T17:14:36.911Z,11.75
2023-01-08T17:17:04.975Z,11.73
2023-01-08T17:19:31.910Z,11.72
2023-01-08T17:21:58.812Z,11.72
2023-01-08T17:24:25.740Z,11.72
2023-01-08T17:26:52.447Z,11.66
2023-01-08T17:29:19.173Z,11.64
2023-01-08T17:31:46.009Z,11.65
2023-01-08T17:34:13.600Z,11.67
2023-01-08T17:36:40.478Z,11.66
2023-01-08T17:39:07.540Z,11.64
2023-01-08T17:41:53.670Z,11.66
2023-01-08T17:44:21.082Z,11.65
2023-01-08T17:46:48.162Z,11.65
2023-01-08T17:49:16.448Z,11.63
2023-01-08T17:51:43.666Z,11.61
2023-01-08T17:54:14.476Z,11.61
2023-01-08T17:56:41.419Z,11.60
2023-01-08T17:59:08.486Z,11.58
2023-01-08T18:01:36.861Z,11.57
2023-01-08T18:04:03.788Z,11.57
2023-01-08T18:06:30.715Z,11.54
2023-01-08T18:08:57.440Z,11.50
2023-01-08T18:11:25.584Z,11.49
2023-01-08T18:13:57.681Z,11.46
2023-01-08T18:16:25.181Z,11.43
2023-01-08T18:18:52.205Z,11.41
2023-01-08T18:21:19.865Z,11.37
2023-01-08T18:23:49.531Z,11.34
2023-01-08T18:26:17.222Z,11.33
2023-01-08T18:28:44.177Z,11.34
2023-01-08T18:31:11.898Z,11.33
2023-01-08T18:33:39.386Z,11.30
2023-01-08T18:36:09.519Z,11.29
2023-01-08T18:38:38.091Z,11.27
2023-01-08T18:41:05.523Z,11.28
2023-01-08T18:43:33.132Z,11.27
2023-01-08T18:46:00.828Z,11.23
2023-01-08T18:48:28.791Z,11.21
2023-01-08T18:50:55.712Z,11.19
2023-01-08T18:53:22.634Z,11.19
2023-01-08T18:55:50.423Z,11.19
2023-01-08T18:58:17.279Z,11.17
2023-01-08T19:00:44.068Z,11.13
2023-01-08T19:03:12.429Z,11.12
2023-01-08T19:05:42.256Z,11.11
2023-01-08T19:08:09.458Z,11.12
2023-01-08T19:10:40.011Z,11.10
2023-01-08T19:13:06.967Z,11.11
2023-01-08T19:15:33.813Z,11.06
2023-01-08T19:18:00.638Z,11.03
2023-01-08T19:20:28.019Z,11.02
2023-01-08T19:22:54.916Z,11.00
2023-01-08T19:25:21.947Z,11.00
2023-01-08T19:27:48.860Z,11.00
2023-01-08T19:30:15.992Z,11.04
2023-01-08T19:32:42.813Z,11.07
2023-01-08T19:35:09.613Z,11.07
2023-01-08T19:37:36.485Z,11.05
2023-01-08T19:40:05.080Z,11.05
2023-01-08T19:42:50.574Z,11.05
2023-01-08T19:45:19.403Z,11.03
2023-01-08T19:47:46.084Z,11.01
2023-01-08T19:50:12.931Z,10.98
2023-01-08T19:52:39.971Z,10.98
2023-01-08T19:55:07.071Z,11.00
2023-01-08T19:57:33.872Z,11.01
2023-01-08T20:00:01.014Z,11.03
2023-01-08T20:02:27.851Z,11.06
2023-01-08T20:04:54.864Z,11.05
2023-01-08T20:07:21.700Z,11.06
2023-01-08T20:09:48.484Z,11.08
2023-01-08T20:12:15.900Z,11.08
2023-01-08T20:14:42.869Z,11.07
2023-01-08T20:17:11.870Z,11.14
2023-01-08T20:19:38.709Z,11.22
2023-01-08T20:22:05.725Z,10.84
2023-01-08T20:24:32.500Z,10.72
2023-01-08T20:26:59.229Z,10.69
2023-01-08T20:29:27.294Z,10.74
2023-01-08T20:31:57.524Z,10.83
2023-01-08T20:34:24.811Z,10.89
2023-01-08T20:36:51.596Z,10.92
2023-01-08T20:39:19.188Z,10.95
2023-01-08T20:42:00.909Z,11.22
2023-01-08T20:44:31.245Z,11.53
2023-01-08T20:46:57.940Z,11.60
2023-01-08T20:49:26.747Z,11.62
2023-01-08T20:51:59.061Z,11.61
2023-01-08T20:54:26.896Z,11.62
2023-01-08T20:56:55.688Z,11.61
2023-01-08T20:59:24.224Z,11.13
2023-01-08T21:01:51.436Z,10.96
2023-01-08T21:04:18.600Z,10.90
2023-01-08T21:06:45.428Z,10.83
2023-01-08T21:09:12.467Z,10.83
2023-01-08T21:11:39.808Z,10.84
2023-01-08T21:14:08.211Z,11.01
2023-01-08T21:16:35.430Z,11.04
2023-01-08T21:19:03.256Z,11.04
2023-01-08T21:21:32.952Z,11.01
2023-01-08T21:24:04.652Z,10.95
2023-01-08T21:26:32.413Z,10.90
2023-01-08T21:29:00.299Z,10.84
2023-01-08T21:31:28.639Z,10.84
2023-01-08T21:33:56.479Z,10.81
2023-01-08T21:36:24.789Z,10.79
2023-01-08T21:38:51.825Z,10.75
2023-01-08T21:41:38.756Z,10.73
2023-01-08T21:44:25.333Z,11.14
2023-01-08T21:46:52.200Z,11.25
2023-01-08T21:49:18.957Z,11.24
2023-01-08T21:52:04.316Z,11.24
2023-01-08T21:54:31.120Z,11.24
2023-01-08T21:56:57.820Z,11.23
2023-01-08T21:59:24.673Z,11.20
2023-01-08T22:01:51.454Z,11.18
2023-01-08T22:04:18.427Z,11.10
2023-01-08T22:06:45.242Z,10.90
2023-01-08T22:09:12.087Z,10.56
2023-01-08T22:11:38.812Z,10.44
2023-01-08T22:14:05.697Z,10.39
2023-01-08T22:16:32.572Z,10.36
2023-01-08T22:18:59.466Z,10.35
2023-01-08T22:21:26.361Z,10.35
2023-01-08T22:23:53.287Z,10.73
2023-01-08T22:26:20.359Z,10.82
2023-01-08T22:28:47.267Z,10.83
2023-01-08T22:31:15.341Z,10.85
2023-01-08T22:33:42.628Z,10.84
2023-01-08T22:36:10.870Z,10.87
2023-01-08T22:38:38.184Z,10.86
2023-01-08T22:41:09.350Z,10.89
2023-01-08T22:43:36.150Z,10.89
2023-01-08T22:46:02.919Z,10.89
2023-01-08T22:48:29.756Z,10.89
2023-01-08T22:51:02.148Z,10.91
2023-01-08T22:53:28.991Z,10.91
2023-01-08T22:55:55.964Z,10.91
2023-01-08T22:58:22.812Z,10.88
2023-01-08T23:00:49.606Z,10.89
2023-01-08T23:03:16.459Z,10.89
2023-01-08T23:05:43.253Z,10.88
2023-01-08T23:08:10.137Z,10.88
2023-01-08T23:10:37.052Z,10.83
2023-01-08T23:13:04.022Z,10.84
2023-01-08T23:15:30.700Z,10.88
2023-01-08T23:17:57.501Z,10.91
2023-01-08T23:20:25.274Z,10.93
2023-01-08T23:22:52.218Z,10.93
2023-01-08T23:25:19.034Z,10.90
2023-01-08T23:27:45.995Z,10.92
2023-01-08T23:30:12.802Z,10.94
2023-01-08T23:32:39.986Z,10.95
2023-01-08T23:35:06.911Z,10.90
2023-01-08T23:37:34.149Z,10.87
2023-01-08T23:40:00.795Z,10.89
2023-01-08T23:42:28.809Z,10.91
2023-01-08T23:44:55.592Z,10.96
2023-01-08T23:47:22.439Z,10.99
2023-01-08T23:49:49.213Z,11.01
2023-01-08T23:52:15.987Z,10.98
2023-01-08T23:54:42.741Z,10.64
2023-01-08T23:57:10.081Z,10.48
2023-01-08T23:59:36.795Z,10.42
